עמוד ראשי
METAR-TAF:

METAR-TAF

שדות תעופה :

נמל התעופה הבינלאומי של קהיר

קהיר, מצרים

קו רוחב: 30-08N, קו אורך: 031-24E, גובה: 64מטר

תצפית מזג אוויר נוכחית

הדו"ח נערך לפני 19דקות, בשעה 22:00 UTC
רוח 7קשר מכיוון צפון
טמפרטורת 28 צלסיוס
לחות 58%
לחץ 1007 hPa
ראות 10 קילומטר או יותר
ללא עננים שבסיסם נמוך מ 5000 רגל או קומולונימבוס

METAR: HECA 252200Z 01007KT CAVOK 28/19 Q1007 NOSIG

זמן: 00:19 (22:19 UTC)

תחזית

הדו"ח נערך לפני 5 שעות ו 19דקות, בשעה 17:00 UTC
תחזית בתוקף מ 25 ב 18 UTC עד 26 ב 24 UTC
רוח 10קשר מכיוון צפון
ראות 10 קילומטר או יותר
ללא עננים שבסיסם נמוך מ 5000 רגל או קומולונימבוס
זמנית מ -
26 ב 00 UTC עד 26 ב 06 UTC
רוח 3קשר עם כיוונים משתנים
ראות: 4000מטר
אובך,

TAF: HECA 251700Z 2518/2624 36010KT CAVOK TEMPO 2600/2606 VRB03KT 4000 HZ NSC

תצפיות ותחזיות מזג אוויר לגבי יותר מ- 4,000 שדות תעופה ברחבי העולם. דוחות METAR ו- TAF.

התחנות הזמינות מסומנות בנקודות צהובות ואדומות על גבי המפה.

העבר את העכבר לנקודה הצבעונית על מנת לראות את שם התחנה.

לאחר מכן, לחץ כדי לראות את תוכן ואת תחזיות מזג האוויר.

כדי לשנות את המפה: לחץ על הכפתורים הירוקים עם הפלוס השחור כדי להתקרב; על הכפתור הירוק עם המקף כדי להתרחק; או בחיצים הירוקים למפות סמוכות.


METAR-TAF: